createdAt,value
2022-12-02T00:01:40.874Z,5.85
2022-12-02T00:04:36.759Z,5.84
2022-12-02T00:07:13.221Z,5.77
2022-12-02T00:09:43.616Z,5.70
2022-12-02T00:12:25.383Z,5.84
2022-12-02T00:15:16.717Z,5.81
2022-12-02T00:17:43.248Z,5.81
2022-12-02T00:20:10.678Z,5.80
2022-12-02T00:22:37.191Z,5.84
2022-12-02T00:25:04.096Z,5.89
2022-12-02T00:27:30.633Z,5.89
2022-12-02T00:29:57.259Z,5.65
2022-12-02T00:32:23.787Z,5.65
2022-12-02T00:34:50.598Z,5.87
2022-12-02T00:37:17.319Z,5.78
2022-12-02T00:39:43.956Z,5.82
2022-12-02T00:42:10.508Z,5.81
2022-12-02T00:44:55.966Z,5.83
2022-12-02T00:47:22.507Z,5.83
2022-12-02T00:49:49.106Z,5.84
2022-12-02T00:52:15.616Z,5.81
2022-12-02T00:54:42.125Z,5.86
2022-12-02T00:57:08.653Z,5.86
2022-12-02T00:59:35.211Z,5.84
2022-12-02T01:02:01.849Z,5.86
2022-12-02T01:04:28.555Z,5.85
2022-12-02T01:06:55.060Z,5.82
2022-12-02T01:09:21.579Z,5.86
2022-12-02T01:11:48.187Z,5.90
2022-12-02T01:14:14.854Z,5.86
2022-12-02T01:16:41.508Z,5.68
2022-12-02T01:19:08.170Z,5.57
2022-12-02T01:21:34.783Z,5.73
2022-12-02T01:24:01.344Z,5.68
2022-12-02T01:26:27.949Z,5.61
2022-12-02T01:28:54.495Z,5.67
2022-12-02T01:31:21.069Z,5.52
2022-12-02T01:33:47.644Z,5.62
2022-12-02T01:36:14.425Z,5.70
2022-12-02T01:38:41.053Z,5.64
2022-12-02T01:41:08.285Z,5.60
2022-12-02T01:43:35.074Z,5.47
2022-12-02T01:46:02.228Z,5.57
2022-12-02T01:48:30.176Z,5.66
2022-12-02T01:50:57.514Z,5.65
2022-12-02T01:53:24.234Z,5.57
2022-12-02T01:55:51.078Z,5.56
2022-12-02T01:58:21.905Z,5.49
2022-12-02T02:00:48.460Z,5.53
2022-12-02T02:03:15.099Z,5.22
2022-12-02T02:05:42.005Z,5.42
2022-12-02T02:08:12.944Z,5.47
2022-12-02T02:10:41.352Z,5.46
2022-12-02T02:13:09.764Z,5.45
2022-12-02T02:15:39.222Z,5.30
2022-12-02T02:18:06.025Z,5.39
2022-12-02T02:20:34.423Z,5.41
2022-12-02T02:23:07.181Z,5.39
2022-12-02T02:25:39.277Z,5.36
2022-12-02T02:28:06.460Z,5.29
2022-12-02T02:30:34.827Z,5.34
2022-12-02T02:33:04.239Z,5.32
2022-12-02T02:35:33.321Z,5.32
2022-12-02T02:38:00.263Z,5.37
2022-12-02T02:40:28.854Z,5.23
2022-12-02T02:43:00.291Z,5.27
2022-12-02T02:45:30.966Z,5.11
2022-12-02T02:47:57.992Z,5.28
2022-12-02T02:50:25.126Z,5.33
2022-12-02T02:52:52.404Z,5.30
2022-12-02T02:55:22.633Z,5.34
2022-12-02T02:57:49.850Z,5.30
2022-12-02T03:00:18.727Z,5.29
2022-12-02T03:02:49.668Z,5.16
2022-12-02T03:05:16.994Z,5.12
2022-12-02T03:07:43.891Z,5.08
2022-12-02T03:10:11.059Z,5.14
2022-12-02T03:12:37.936Z,5.10
2022-12-02T03:15:05.739Z,5.21
2022-12-02T03:17:32.538Z,5.04
2022-12-02T03:19:59.254Z,5.05
2022-12-02T03:22:26.299Z,5.03
2022-12-02T03:24:53.190Z,5.21
2022-12-02T03:27:19.983Z,5.19
2022-12-02T03:29:46.777Z,5.06
2022-12-02T03:32:14.055Z,5.06
2022-12-02T03:34:42.242Z,5.18
2022-12-02T03:37:10.179Z,5.11
2022-12-02T03:39:37.981Z,5.14
2022-12-02T03:42:05.126Z,4.99
2022-12-02T03:44:31.819Z,5.12
2022-12-02T03:46:58.520Z,5.10
2022-12-02T03:49:25.717Z,4.92
2022-12-02T03:51:52.583Z,5.10
2022-12-02T03:54:19.274Z,5.02
2022-12-02T03:56:46.320Z,5.00
2022-12-02T03:59:20.594Z,5.01
2022-12-02T04:01:47.278Z,5.03
2022-12-02T04:04:14.135Z,5.00
2022-12-02T04:06:41.066Z,5.01
2022-12-02T04:09:07.609Z,4.99
2022-12-02T04:11:34.319Z,4.77
2022-12-02T04:14:01.076Z,4.91
2022-12-02T04:16:27.876Z,4.95
2022-12-02T04:18:54.479Z,4.96
2022-12-02T04:21:21.821Z,4.82
2022-12-02T04:23:48.703Z,4.95
2022-12-02T04:26:15.316Z,4.98
2022-12-02T04:28:41.886Z,4.84
2022-12-02T04:31:08.567Z,4.89
2022-12-02T04:33:35.157Z,4.97
2022-12-02T04:36:01.764Z,4.89
2022-12-02T04:38:28.680Z,4.97
2022-12-02T04:40:55.343Z,4.86
2022-12-02T04:43:22.017Z,4.92
2022-12-02T04:45:48.776Z,4.82
2022-12-02T04:48:15.411Z,4.88
2022-12-02T04:50:41.973Z,4.76
2022-12-02T04:53:08.607Z,4.94
2022-12-02T04:55:35.205Z,4.97
2022-12-02T04:58:01.880Z,4.93
2022-12-02T05:00:28.543Z,4.76
2022-12-02T05:02:55.710Z,4.74
2022-12-02T05:05:22.410Z,4.99
2022-12-02T05:07:48.960Z,4.91
2022-12-02T05:10:15.664Z,4.84
2022-12-02T05:12:42.183Z,4.72
2022-12-02T05:15:09.205Z,4.85
2022-12-02T05:17:40.538Z,4.79
2022-12-02T05:20:08.916Z,4.68
2022-12-02T05:22:35.906Z,4.80
2022-12-02T05:25:02.524Z,4.66
2022-12-02T05:27:33.842Z,4.83
2022-12-02T05:30:02.251Z,4.79
2022-12-02T05:32:28.741Z,4.73
2022-12-02T05:34:55.269Z,4.78
2022-12-02T05:37:21.918Z,4.74
2022-12-02T05:39:48.527Z,4.64
2022-12-02T05:42:15.416Z,4.65
2022-12-02T05:44:43.831Z,4.67
2022-12-02T05:47:16.446Z,4.82
2022-12-02T05:49:45.258Z,4.85
2022-12-02T05:52:24.560Z,4.78
2022-12-02T05:55:06.853Z,4.77
2022-12-02T05:57:33.652Z,4.75
2022-12-02T06:00:08.978Z,4.81
2022-12-02T06:02:42.918Z,4.77
2022-12-02T06:05:34.221Z,4.79
2022-12-02T06:08:22.197Z,4.61
2022-12-02T06:10:52.369Z,4.55
2022-12-02T06:13:25.256Z,4.74
2022-12-02T06:15:52.441Z,4.68
2022-12-02T06:18:21.999Z,4.46
2022-12-02T06:20:53.607Z,4.72
2022-12-02T06:23:21.231Z,4.73
2022-12-02T06:25:49.991Z,4.72
2022-12-02T06:28:28.352Z,4.58
2022-12-02T06:31:01.790Z,4.63
2022-12-02T06:33:36.893Z,4.75
2022-12-02T06:36:09.789Z,4.79
2022-12-02T06:38:44.348Z,4.80
2022-12-02T06:41:15.791Z,4.67
2022-12-02T06:44:02.615Z,4.73
2022-12-02T06:46:31.030Z,4.51
2022-12-02T06:48:57.643Z,4.54
2022-12-02T06:51:24.296Z,4.79
2022-12-02T06:53:50.822Z,4.68
2022-12-02T06:56:17.508Z,4.80
2022-12-02T06:58:55.711Z,4.59
2022-12-02T07:01:28.818Z,4.66
2022-12-02T07:04:02.143Z,4.82
2022-12-02T07:06:30.349Z,4.66
2022-12-02T07:09:22.866Z,4.72
2022-12-02T07:11:51.907Z,4.83
2022-12-02T07:14:37.794Z,4.86
2022-12-02T07:17:25.174Z,4.87
2022-12-02T07:20:01.908Z,4.85
2022-12-02T07:23:00.357Z,4.84
2022-12-02T07:25:39.880Z,4.93
2022-12-02T07:28:15.569Z,4.93
2022-12-02T07:30:43.394Z,4.84
2022-12-02T07:33:10.119Z,4.92
2022-12-02T07:35:36.763Z,4.69
2022-12-02T07:38:03.452Z,4.87
2022-12-02T07:40:29.965Z,4.93
2022-12-02T07:42:56.506Z,4.87
2022-12-02T07:45:22.998Z,4.89
2022-12-02T07:47:49.658Z,5.00
2022-12-02T07:50:16.850Z,4.86
2022-12-02T07:52:43.404Z,4.94
2022-12-02T07:55:10.146Z,4.90
2022-12-02T07:57:37.579Z,4.77
2022-12-02T08:00:08.790Z,5.05
2022-12-02T08:02:35.408Z,4.98
2022-12-02T08:05:02.165Z,4.86
2022-12-02T08:07:29.002Z,5.07
2022-12-02T08:09:55.661Z,5.05
2022-12-02T08:12:22.324Z,5.03
2022-12-02T08:14:49.216Z,4.90
2022-12-02T08:17:16.170Z,4.91
2022-12-02T08:19:42.814Z,4.90
2022-12-02T08:22:09.389Z,5.11
2022-12-02T08:24:35.878Z,4.84
2022-12-02T08:27:02.410Z,5.05
2022-12-02T08:29:29.374Z,5.04
2022-12-02T08:31:56.173Z,4.91
2022-12-02T08:34:23.001Z,5.14
2022-12-02T08:36:49.563Z,4.94
2022-12-02T08:39:16.094Z,5.17
2022-12-02T08:41:42.636Z,5.16
2022-12-02T08:44:09.245Z,5.03
2022-12-02T08:46:36.675Z,5.01
2022-12-02T08:49:04.077Z,4.99
2022-12-02T08:51:30.721Z,5.15
2022-12-02T08:53:57.402Z,5.17
2022-12-02T08:56:24.209Z,5.22
2022-12-02T08:58:51.095Z,5.29
2022-12-02T09:01:17.651Z,5.32
2022-12-02T09:03:44.385Z,5.18
2022-12-02T09:06:10.914Z,5.35
2022-12-02T09:08:37.512Z,5.32
2022-12-02T09:11:04.198Z,5.15
2022-12-02T09:13:30.828Z,5.40
2022-12-02T09:15:57.392Z,5.31
2022-12-02T09:18:25.141Z,5.33
2022-12-02T09:20:51.786Z,5.38
2022-12-02T09:23:18.304Z,5.48
2022-12-02T09:25:44.934Z,5.45
2022-12-02T09:28:11.561Z,5.40
2022-12-02T09:30:38.404Z,5.29
2022-12-02T09:33:05.033Z,5.37
2022-12-02T09:35:31.615Z,5.44
2022-12-02T09:37:58.475Z,5.60
2022-12-02T09:40:25.457Z,5.69
2022-12-02T09:42:52.248Z,5.56
2022-12-02T09:45:19.144Z,5.77
2022-12-02T09:47:45.917Z,5.64
2022-12-02T09:50:17.407Z,5.91
2022-12-02T09:52:44.995Z,5.94
2022-12-02T09:55:14.904Z,5.82
2022-12-02T09:57:43.094Z,5.94
2022-12-02T10:00:16.182Z,6.03
2022-12-02T10:02:45.608Z,6.10
2022-12-02T10:05:21.830Z,6.07
2022-12-02T10:07:50.288Z,6.14
2022-12-02T10:10:21.978Z,6.17
2022-12-02T10:12:49.235Z,6.07
2022-12-02T10:15:20.029Z,6.23
2022-12-02T10:17:47.393Z,6.08
2022-12-02T10:20:25.818Z,6.30
2022-12-02T10:23:07.114Z,6.32
2022-12-02T10:25:34.544Z,6.28
2022-12-02T10:28:02.138Z,6.28
2022-12-02T10:30:29.705Z,6.42
2022-12-02T10:33:07.106Z,6.54
2022-12-02T10:35:46.313Z,6.43
2022-12-02T10:38:29.562Z,6.63
2022-12-02T10:41:25.619Z,6.67
2022-12-02T10:43:52.099Z,6.69
2022-12-02T10:46:22.935Z,6.64
2022-12-02T10:48:50.508Z,6.49
2022-12-02T10:51:20.112Z,6.76
2022-12-02T10:53:51.201Z,6.72
2022-12-02T10:56:25.751Z,6.93
2022-12-02T10:58:55.637Z,6.92
2022-12-02T11:01:22.772Z,7.29
2022-12-02T11:03:49.623Z,7.39
2022-12-02T11:06:19.679Z,7.64
2022-12-02T11:08:48.696Z,7.73
2022-12-02T11:11:35.579Z,7.81
2022-12-02T11:14:10.048Z,7.85
2022-12-02T11:16:36.735Z,7.87
2022-12-02T11:19:05.983Z,7.74
2022-12-02T11:21:34.083Z,7.62
2022-12-02T11:24:22.306Z,7.81
2022-12-02T11:27:01.392Z,7.77
2022-12-02T11:30:03.258Z,7.73
2022-12-02T11:32:29.833Z,7.70
2022-12-02T11:35:18.194Z,7.65
2022-12-02T11:37:48.315Z,7.46
2022-12-02T11:40:17.925Z,7.58
2022-12-02T11:42:45.844Z,7.43
2022-12-02T11:45:18.490Z,7.57
2022-12-02T11:47:55.037Z,7.61
2022-12-02T11:50:32.235Z,7.63
2022-12-02T11:53:03.329Z,7.71
2022-12-02T11:55:56.192Z,7.78
2022-12-02T11:58:32.208Z,7.79
2022-12-02T12:01:15.437Z,7.89
2022-12-02T12:03:47.053Z,8.00
2022-12-02T12:06:16.239Z,8.10
2022-12-02T12:08:45.848Z,7.90
2022-12-02T12:11:28.920Z,8.31
2022-12-02T12:14:11.279Z,8.35
2022-12-02T12:16:43.327Z,8.33
2022-12-02T12:19:13.055Z,8.62
2022-12-02T12:21:47.896Z,8.73
2022-12-02T12:24:17.673Z,8.74
2022-12-02T12:26:46.660Z,8.41
2022-12-02T12:29:13.721Z,8.35
2022-12-02T12:31:40.542Z,8.62
2022-12-02T12:34:07.788Z,8.61
2022-12-02T12:36:35.832Z,8.28
2022-12-02T12:39:03.412Z,8.42
2022-12-02T12:41:59.162Z,8.29
2022-12-02T12:44:16.546Z,8.35
2022-12-02T12:46:43.087Z,8.43
2022-12-02T12:49:10.007Z,8.15
2022-12-02T12:51:36.743Z,8.46
2022-12-02T12:54:03.468Z,8.36
2022-12-02T12:56:30.145Z,8.46
2022-12-02T12:58:56.795Z,8.36
2022-12-02T13:01:25.251Z,8.53
2022-12-02T13:03:52.725Z,8.39
2022-12-02T13:06:20.898Z,8.50
2022-12-02T13:08:47.775Z,8.51
2022-12-02T13:11:14.566Z,8.63
2022-12-02T13:13:41.186Z,8.79
2022-12-02T13:16:07.805Z,8.73
2022-12-02T13:18:34.392Z,8.64
2022-12-02T13:21:00.894Z,8.61
2022-12-02T13:23:27.469Z,8.43
2022-12-02T13:25:53.993Z,8.33
2022-12-02T13:28:20.825Z,8.27
2022-12-02T13:30:47.747Z,8.18
2022-12-02T13:33:14.503Z,8.05
2022-12-02T13:35:41.099Z,8.11
2022-12-02T13:38:07.654Z,8.08
2022-12-02T13:40:34.384Z,8.28
2022-12-02T13:43:00.947Z,8.33
2022-12-02T13:45:30.403Z,8.26
2022-12-02T13:47:57.292Z,8.21
2022-12-02T13:50:23.868Z,8.23
2022-12-02T13:52:51.141Z,7.95
2022-12-02T13:55:17.675Z,7.93
2022-12-02T13:57:44.186Z,7.97
2022-12-02T14:00:12.577Z,7.98
2022-12-02T14:02:39.208Z,7.97
2022-12-02T14:05:08.143Z,7.80
2022-12-02T14:07:35.752Z,7.93
2022-12-02T14:10:03.710Z,7.61
2022-12-02T14:12:30.494Z,7.64
2022-12-02T14:14:57.000Z,7.70
2022-12-02T14:17:23.515Z,7.80
2022-12-02T14:19:50.571Z,7.81
2022-12-02T14:22:18.331Z,7.83
2022-12-02T14:24:48.816Z,7.80
2022-12-02T14:27:16.763Z,7.93
2022-12-02T14:29:43.507Z,7.93
2022-12-02T14:32:10.275Z,8.00
2022-12-02T14:34:36.874Z,7.89
2022-12-02T14:37:03.515Z,7.92
2022-12-02T14:39:30.252Z,7.85
2022-12-02T14:41:56.753Z,7.68
2022-12-02T14:44:23.421Z,7.62
2022-12-02T14:46:50.044Z,7.87
2022-12-02T14:49:38.866Z,7.51
2022-12-02T14:52:03.780Z,7.79
2022-12-02T14:54:30.439Z,7.75
2022-12-02T14:56:57.290Z,7.64
2022-12-02T14:59:23.943Z,7.43
2022-12-02T15:01:50.527Z,7.52
2022-12-02T15:04:17.176Z,7.52
2022-12-02T15:06:44.974Z,7.24
2022-12-02T15:09:11.633Z,7.39
2022-12-02T15:11:38.427Z,7.22
2022-12-02T15:14:04.960Z,7.29
2022-12-02T15:16:31.692Z,7.04
2022-12-02T15:18:58.390Z,6.99
2022-12-02T15:21:25.170Z,6.88
2022-12-02T15:23:51.876Z,7.00
2022-12-02T15:26:18.518Z,6.93
2022-12-02T15:28:45.047Z,6.82
2022-12-02T15:31:11.813Z,6.72
2022-12-02T15:33:38.426Z,6.65
2022-12-02T15:36:05.331Z,6.61
2022-12-02T15:38:33.338Z,6.50
2022-12-02T15:41:00.115Z,6.45
2022-12-02T15:43:26.889Z,6.33
2022-12-02T15:45:53.991Z,6.21
2022-12-02T15:48:20.799Z,6.42
2022-12-02T15:50:51.842Z,6.32
2022-12-02T15:53:21.492Z,6.30
2022-12-02T15:55:48.172Z,6.17
2022-12-02T15:58:14.836Z,6.18
2022-12-02T16:00:41.738Z,6.09
2022-12-02T16:03:08.457Z,6.05
2022-12-02T16:05:34.973Z,6.20
2022-12-02T16:08:01.723Z,6.09
2022-12-02T16:10:28.374Z,6.10
2022-12-02T16:12:54.917Z,6.00
2022-12-02T16:15:21.462Z,6.00
2022-12-02T16:17:48.429Z,6.11
2022-12-02T16:20:15.074Z,6.13
2022-12-02T16:22:41.592Z,6.20
2022-12-02T16:25:08.568Z,6.26
2022-12-02T16:27:35.266Z,6.17
2022-12-02T16:30:02.212Z,6.02
2022-12-02T16:32:28.751Z,5.94
2022-12-02T16:34:55.566Z,5.99
2022-12-02T16:37:23.271Z,6.01
2022-12-02T16:39:50.190Z,5.89
2022-12-02T16:42:17.213Z,5.95
2022-12-02T16:44:43.994Z,5.83
2022-12-02T16:47:13.016Z,5.95
2022-12-02T16:49:39.717Z,5.95
2022-12-02T16:52:06.230Z,5.92
2022-12-02T16:54:32.776Z,5.85
2022-12-02T16:56:59.297Z,5.80
2022-12-02T16:59:27.379Z,5.89
2022-12-02T17:01:54.158Z,5.97
2022-12-02T17:04:20.747Z,5.83
2022-12-02T17:06:47.466Z,5.82
2022-12-02T17:09:14.734Z,5.89
2022-12-02T17:11:41.407Z,5.83
2022-12-02T17:14:07.981Z,5.79
2022-12-02T17:16:34.828Z,5.80
2022-12-02T17:19:02.476Z,5.95
2022-12-02T17:21:29.015Z,5.96
2022-12-02T17:23:55.519Z,5.88
2022-12-02T17:26:22.280Z,5.75
2022-12-02T17:28:48.798Z,6.01
2022-12-02T17:31:15.893Z,6.03
2022-12-02T17:33:42.619Z,5.95
2022-12-02T17:36:09.293Z,5.83
2022-12-02T17:38:55.583Z,5.76
2022-12-02T17:41:24.087Z,5.78
2022-12-02T17:43:50.707Z,5.80
2022-12-02T17:46:17.558Z,5.57
2022-12-02T17:48:44.738Z,5.86
2022-12-02T17:51:11.755Z,5.59
2022-12-02T17:53:39.043Z,5.78
2022-12-02T17:56:20.129Z,5.90
2022-12-02T17:58:46.724Z,5.90
2022-12-02T18:01:13.263Z,5.80
2022-12-02T18:03:40.714Z,5.91
2022-12-02T18:06:08.317Z,5.95
2022-12-02T18:08:35.502Z,5.80
2022-12-02T18:11:02.659Z,5.83
2022-12-02T18:13:30.089Z,5.88
2022-12-02T18:15:56.629Z,5.94
2022-12-02T18:18:23.282Z,5.83
2022-12-02T18:20:49.814Z,5.82
2022-12-02T18:23:16.840Z,5.85
2022-12-02T18:25:43.661Z,5.98
2022-12-02T18:28:10.312Z,5.89
2022-12-02T18:30:36.928Z,6.02
2022-12-02T18:33:03.636Z,6.12
2022-12-02T18:35:30.252Z,6.02
2022-12-02T18:37:56.820Z,5.96
2022-12-02T18:40:23.599Z,6.11
2022-12-02T18:42:50.686Z,6.17
2022-12-02T18:45:17.570Z,6.17
2022-12-02T18:47:44.396Z,6.24
2022-12-02T18:50:12.853Z,6.26
2022-12-02T18:52:39.531Z,6.27
2022-12-02T18:55:06.956Z,5.99
2022-12-02T18:57:33.779Z,6.26
2022-12-02T19:00:00.279Z,6.31
2022-12-02T19:02:27.007Z,6.22
2022-12-02T19:04:54.025Z,6.17
2022-12-02T19:07:21.410Z,6.29
2022-12-02T19:09:53.388Z,6.28
2022-12-02T19:12:21.072Z,6.24
2022-12-02T19:14:47.745Z,6.20
2022-12-02T19:17:14.316Z,6.23
2022-12-02T19:19:41.136Z,6.09
2022-12-02T19:22:07.859Z,6.15
2022-12-02T19:24:34.421Z,6.18
2022-12-02T19:27:02.030Z,5.93
2022-12-02T19:29:29.161Z,6.11
2022-12-02T19:31:55.932Z,6.25
2022-12-02T19:34:22.647Z,6.21
2022-12-02T19:36:49.324Z,6.26
2022-12-02T19:39:16.449Z,6.30
2022-12-02T19:41:43.069Z,6.18
2022-12-02T19:44:09.618Z,6.23
2022-12-02T19:46:36.287Z,6.01
2022-12-02T19:49:03.449Z,6.28
2022-12-02T19:51:30.319Z,6.15
2022-12-02T19:53:58.305Z,6.17
2022-12-02T19:56:25.264Z,6.17
2022-12-02T19:58:51.945Z,6.28
2022-12-02T20:01:18.576Z,6.18
2022-12-02T20:03:45.215Z,6.33
2022-12-02T20:06:11.720Z,6.28
2022-12-02T20:08:38.336Z,6.28
2022-12-02T20:11:05.035Z,6.18
2022-12-02T20:13:31.542Z,6.23
2022-12-02T20:15:58.949Z,6.21
2022-12-02T20:18:26.308Z,6.18
2022-12-02T20:20:53.122Z,6.11
2022-12-02T20:23:19.699Z,6.12
2022-12-02T20:25:46.226Z,6.07
2022-12-02T20:28:12.808Z,6.07
2022-12-02T20:30:39.309Z,6.02
2022-12-02T20:33:05.830Z,6.25
2022-12-02T20:35:33.093Z,6.21
2022-12-02T20:38:01.309Z,6.14
2022-12-02T20:40:28.162Z,6.23
2022-12-02T20:42:54.676Z,6.22
2022-12-02T20:45:22.130Z,6.24
2022-12-02T20:47:48.677Z,6.13
2022-12-02T20:50:15.388Z,6.19
2022-12-02T20:52:41.969Z,6.22
2022-12-02T20:55:09.478Z,6.09
2022-12-02T20:57:36.025Z,6.19
2022-12-02T21:00:02.709Z,6.05
2022-12-02T21:02:29.604Z,6.20
2022-12-02T21:04:56.207Z,6.18
2022-12-02T21:07:22.785Z,6.19
2022-12-02T21:09:49.381Z,5.88
2022-12-02T21:12:15.909Z,6.13
2022-12-02T21:14:42.524Z,6.08
2022-12-02T21:17:09.166Z,6.10
2022-12-02T21:19:35.816Z,5.96
2022-12-02T21:22:02.391Z,6.01
2022-12-02T21:24:28.988Z,5.94
2022-12-02T21:26:55.658Z,5.92
2022-12-02T21:29:22.270Z,6.00
2022-12-02T21:31:48.882Z,5.98
2022-12-02T21:34:15.465Z,5.97
2022-12-02T21:36:42.030Z,5.93
2022-12-02T21:39:09.714Z,5.92
2022-12-02T21:41:36.347Z,6.01
2022-12-02T21:44:02.896Z,6.06
2022-12-02T21:46:29.554Z,6.01
2022-12-02T21:48:56.296Z,6.05
2022-12-02T21:51:22.999Z,5.99
2022-12-02T21:53:49.530Z,5.80
2022-12-02T21:56:16.114Z,5.99
2022-12-02T21:58:42.608Z,6.01
2022-12-02T22:01:27.746Z,6.04
2022-12-02T22:03:54.442Z,6.00
2022-12-02T22:06:20.963Z,5.93
2022-12-02T22:08:47.520Z,5.97
2022-12-02T22:11:14.057Z,5.93
2022-12-02T22:13:40.613Z,5.62
2022-12-02T22:16:07.467Z,5.86
2022-12-02T22:18:34.048Z,5.79
2022-12-02T22:21:00.632Z,5.76
2022-12-02T22:23:27.164Z,5.70
2022-12-02T22:25:53.852Z,5.73
2022-12-02T22:28:20.529Z,5.73
2022-12-02T22:30:47.081Z,5.73
2022-12-02T22:33:13.707Z,5.67
2022-12-02T22:35:40.367Z,5.56
2022-12-02T22:38:06.923Z,5.65
2022-12-02T22:40:33.529Z,5.74
2022-12-02T22:43:00.093Z,5.69
2022-12-02T22:45:26.651Z,5.69
2022-12-02T22:47:53.184Z,5.47
2022-12-02T22:50:19.676Z,5.69
2022-12-02T22:52:46.168Z,5.63
2022-12-02T22:55:12.772Z,5.82
2022-12-02T22:57:39.296Z,5.72
2022-12-02T23:00:08.172Z,5.82
2022-12-02T23:02:34.734Z,5.83
2022-12-02T23:05:01.360Z,5.79
2022-12-02T23:07:27.941Z,5.83
2022-12-02T23:09:54.479Z,5.74
2022-12-02T23:12:21.016Z,5.60
2022-12-02T23:14:47.630Z,5.81
2022-12-02T23:17:14.165Z,5.80
2022-12-02T23:19:40.702Z,5.54
2022-12-02T23:22:07.203Z,5.80
2022-12-02T23:24:33.843Z,5.79
2022-12-02T23:27:00.359Z,5.73
2022-12-02T23:29:27.642Z,5.79
2022-12-02T23:31:54.169Z,5.71
2022-12-02T23:34:20.683Z,5.69
2022-12-02T23:36:47.191Z,5.57
2022-12-02T23:39:13.710Z,5.62
2022-12-02T23:41:40.245Z,5.68
2022-12-02T23:44:06.751Z,5.60
2022-12-02T23:46:34.434Z,5.62
2022-12-02T23:49:01.066Z,5.65
2022-12-02T23:51:27.586Z,5.46
2022-12-02T23:53:54.140Z,5.48
2022-12-02T23:56:20.780Z,5.62
2022-12-02T23:58:47.474Z,5.62
